sensor_id;sensor_type;location;lat;lon;timestamp;P1;durP1;ratioP1;P2;durP2;ratioP2
63038;SDS011;49125;48.812;9.206;2022-07-22T00:02:06;9.75;;;8.52;;
63038;SDS011;49125;48.812;9.206;2022-07-22T00:04:32;10.10;;;9.02;;
63038;SDS011;49125;48.812;9.206;2022-07-22T00:06:57;10.27;;;8.95;;
63038;SDS011;49125;48.812;9.206;2022-07-22T00:09:23;10.60;;;8.88;;
63038;SDS011;49125;48.812;9.206;2022-07-22T00:11:49;10.52;;;9.05;;
63038;SDS011;49125;48.812;9.206;2022-07-22T00:14:14;9.93;;;8.93;;
63038;SDS011;49125;48.812;9.206;2022-07-22T00:16:40;11.55;;;9.40;;
63038;SDS011;49125;48.812;9.206;2022-07-22T00:19:06;10.07;;;9.05;;
63038;SDS011;49125;48.812;9.206;2022-07-22T00:21:31;10.85;;;9.75;;
63038;SDS011;49125;48.812;9.206;2022-07-22T00:23:57;9.75;;;8.93;;
63038;SDS011;49125;48.812;9.206;2022-07-22T00:26:22;11.20;;;9.52;;
63038;SDS011;49125;48.812;9.206;2022-07-22T00:28:48;9.85;;;8.90;;
63038;SDS011;49125;48.812;9.206;2022-07-22T00:31:14;10.20;;;9.15;;
63038;SDS011;49125;48.812;9.206;2022-07-22T00:33:39;8.68;;;7.88;;
63038;SDS011;49125;48.812;9.206;2022-07-22T00:36:05;9.55;;;8.70;;
63038;SDS011;49125;48.812;9.206;2022-07-22T00:38:31;9.57;;;8.57;;
63038;SDS011;49125;48.812;9.206;2022-07-22T00:40:57;8.75;;;7.95;;
63038;SDS011;49125;48.812;9.206;2022-07-22T00:43:22;8.82;;;8.13;;
63038;SDS011;49125;48.812;9.206;2022-07-22T00:45:48;9.80;;;8.90;;
63038;SDS011;49125;48.812;9.206;2022-07-22T00:48:14;9.23;;;8.27;;
63038;SDS011;49125;48.812;9.206;2022-07-22T00:50:40;9.27;;;8.57;;
63038;SDS011;49125;48.812;9.206;2022-07-22T00:53:06;8.43;;;7.72;;
63038;SDS011;49125;48.812;9.206;2022-07-22T00:55:32;20.90;;;8.25;;
63038;SDS011;49125;48.812;9.206;2022-07-22T00:57:59;9.07;;;8.25;;
63038;SDS011;49125;48.812;9.206;2022-07-22T01:00:24;10.65;;;8.20;;
63038;SDS011;49125;48.812;9.206;2022-07-22T01:02:50;8.73;;;7.93;;
63038;SDS011;49125;48.812;9.206;2022-07-22T01:05:16;10.40;;;8.73;;
63038;SDS011;49125;48.812;9.206;2022-07-22T01:07:42;9.50;;;8.68;;
63038;SDS011;49125;48.812;9.206;2022-07-22T01:10:08;9.68;;;8.65;;
63038;SDS011;49125;48.812;9.206;2022-07-22T01:12:34;10.73;;;9.63;;
63038;SDS011;49125;48.812;9.206;2022-07-22T01:15:00;9.43;;;8.52;;
63038;SDS011;49125;48.812;9.206;2022-07-22T01:17:25;10.00;;;9.10;;
63038;SDS011;49125;48.812;9.206;2022-07-22T01:19:51;9.65;;;8.75;;
63038;SDS011;49125;48.812;9.206;2022-07-22T01:22:17;9.82;;;8.98;;
63038;SDS011;49125;48.812;9.206;2022-07-22T01:24:42;10.20;;;9.30;;
63038;SDS011;49125;48.812;9.206;2022-07-22T01:27:08;9.95;;;9.02;;
63038;SDS011;49125;48.812;9.206;2022-07-22T01:29:33;10.13;;;9.30;;
63038;SDS011;49125;48.812;9.206;2022-07-22T01:31:59;9.45;;;8.50;;
63038;SDS011;49125;48.812;9.206;2022-07-22T01:34:25;9.68;;;8.27;;
63038;SDS011;49125;48.812;9.206;2022-07-22T01:36:53;10.48;;;8.80;;
63038;SDS011;49125;48.812;9.206;2022-07-22T01:39:19;9.48;;;8.57;;
63038;SDS011;49125;48.812;9.206;2022-07-22T01:41:44;9.95;;;8.95;;
63038;SDS011;49125;48.812;9.206;2022-07-22T01:44:10;11.20;;;8.88;;
63038;SDS011;49125;48.812;9.206;2022-07-22T01:46:35;8.93;;;8.13;;
63038;SDS011;49125;48.812;9.206;2022-07-22T01:49:01;10.38;;;9.48;;
63038;SDS011;49125;48.812;9.206;2022-07-22T01:51:27;10.45;;;9.35;;
63038;SDS011;49125;48.812;9.206;2022-07-22T01:53:52;10.88;;;9.73;;
63038;SDS011;49125;48.812;9.206;2022-07-22T01:56:18;10.52;;;9.52;;
63038;SDS011;49125;48.812;9.206;2022-07-22T01:58:44;10.70;;;9.60;;
63038;SDS011;49125;48.812;9.206;2022-07-22T02:01:09;11.18;;;10.10;;
63038;SDS011;49125;48.812;9.206;2022-07-22T02:03:35;11.63;;;10.65;;
63038;SDS011;49125;48.812;9.206;2022-07-22T02:06:01;12.60;;;11.50;;
63038;SDS011;49125;48.812;9.206;2022-07-22T02:08:27;12.38;;;11.38;;
63038;SDS011;49125;48.812;9.206;2022-07-22T02:10:53;12.95;;;11.73;;
63038;SDS011;49125;48.812;9.206;2022-07-22T02:13:18;11.98;;;10.90;;
63038;SDS011;49125;48.812;9.206;2022-07-22T02:15:44;12.05;;;11.05;;
63038;SDS011;49125;48.812;9.206;2022-07-22T02:18:10;12.73;;;11.48;;
63038;SDS011;49125;48.812;9.206;2022-07-22T02:20:40;11.73;;;10.73;;
63038;SDS011;49125;48.812;9.206;2022-07-22T02:23:06;11.43;;;10.32;;
63038;SDS011;49125;48.812;9.206;2022-07-22T02:25:32;12.48;;;11.27;;
63038;SDS011;49125;48.812;9.206;2022-07-22T02:27:58;11.80;;;10.70;;
63038;SDS011;49125;48.812;9.206;2022-07-22T02:30:23;12.70;;;11.50;;
63038;SDS011;49125;48.812;9.206;2022-07-22T02:32:49;12.20;;;11.00;;
63038;SDS011;49125;48.812;9.206;2022-07-22T02:35:14;11.70;;;10.68;;
63038;SDS011;49125;48.812;9.206;2022-07-22T02:37:40;11.68;;;10.68;;
63038;SDS011;49125;48.812;9.206;2022-07-22T02:40:06;11.88;;;10.90;;
63038;SDS011;49125;48.812;9.206;2022-07-22T02:42:33;13.13;;;11.77;;
63038;SDS011;49125;48.812;9.206;2022-07-22T02:44:59;12.30;;;10.95;;
63038;SDS011;49125;48.812;9.206;2022-07-22T02:47:25;12.07;;;10.98;;
63038;SDS011;49125;48.812;9.206;2022-07-22T02:49:50;11.25;;;10.35;;
63038;SDS011;49125;48.812;9.206;2022-07-22T02:52:16;12.98;;;11.88;;
63038;SDS011;49125;48.812;9.206;2022-07-22T02:54:42;11.25;;;10.25;;
63038;SDS011;49125;48.812;9.206;2022-07-22T02:57:08;12.38;;;11.20;;
63038;SDS011;49125;48.812;9.206;2022-07-22T02:59:36;13.20;;;12.10;;
63038;SDS011;49125;48.812;9.206;2022-07-22T03:02:02;12.98;;;11.65;;
63038;SDS011;49125;48.812;9.206;2022-07-22T03:04:28;12.93;;;11.82;;
63038;SDS011;49125;48.812;9.206;2022-07-22T03:06:54;13.45;;;11.98;;
63038;SDS011;49125;48.812;9.206;2022-07-22T03:09:19;13.90;;;12.50;;
63038;SDS011;49125;48.812;9.206;2022-07-22T03:11:45;13.85;;;12.48;;
63038;SDS011;49125;48.812;9.206;2022-07-22T03:14:11;13.45;;;12.05;;
63038;SDS011;49125;48.812;9.206;2022-07-22T03:16:37;13.43;;;12.32;;
63038;SDS011;49125;48.812;9.206;2022-07-22T03:19:03;13.27;;;11.98;;
63038;SDS011;49125;48.812;9.206;2022-07-22T03:21:28;13.35;;;12.00;;
63038;SDS011;49125;48.812;9.206;2022-07-22T03:23:54;13.50;;;11.60;;
63038;SDS011;49125;48.812;9.206;2022-07-22T03:26:20;13.52;;;12.32;;
63038;SDS011;49125;48.812;9.206;2022-07-22T03:28:46;13.60;;;12.30;;
63038;SDS011;49125;48.812;9.206;2022-07-22T03:31:12;13.10;;;11.82;;
63038;SDS011;49125;48.812;9.206;2022-07-22T03:33:38;14.10;;;12.73;;
63038;SDS011;49125;48.812;9.206;2022-07-22T03:36:03;12.52;;;11.48;;
63038;SDS011;49125;48.812;9.206;2022-07-22T03:38:30;13.45;;;12.25;;
63038;SDS011;49125;48.812;9.206;2022-07-22T03:40:56;13.90;;;12.50;;
63038;SDS011;49125;48.812;9.206;2022-07-22T03:43:21;13.45;;;12.23;;
63038;SDS011;49125;48.812;9.206;2022-07-22T03:45:47;13.50;;;12.15;;
63038;SDS011;49125;48.812;9.206;2022-07-22T03:48:13;13.57;;;12.05;;
63038;SDS011;49125;48.812;9.206;2022-07-22T03:50:38;13.70;;;12.40;;
63038;SDS011;49125;48.812;9.206;2022-07-22T03:53:04;13.57;;;12.27;;
63038;SDS011;49125;48.812;9.206;2022-07-22T03:55:30;16.65;;;12.73;;
63038;SDS011;49125;48.812;9.206;2022-07-22T03:57:55;14.27;;;12.85;;
63038;SDS011;49125;48.812;9.206;2022-07-22T04:00:21;18.88;;;13.18;;
63038;SDS011;49125;48.812;9.206;2022-07-22T04:02:46;14.02;;;12.82;;
63038;SDS011;49125;48.812;9.206;2022-07-22T04:05:12;14.65;;;13.20;;
63038;SDS011;49125;48.812;9.206;2022-07-22T04:07:37;14.20;;;12.88;;
63038;SDS011;49125;48.812;9.206;2022-07-22T04:10:03;14.05;;;12.75;;
63038;SDS011;49125;48.812;9.206;2022-07-22T04:12:32;13.20;;;11.93;;
63038;SDS011;49125;48.812;9.206;2022-07-22T04:15:04;15.27;;;13.88;;
63038;SDS011;49125;48.812;9.206;2022-07-22T04:17:31;14.18;;;12.90;;
63038;SDS011;49125;48.812;9.206;2022-07-22T04:19:56;14.10;;;12.88;;
63038;SDS011;49125;48.812;9.206;2022-07-22T04:22:25;15.13;;;13.57;;
63038;SDS011;49125;48.812;9.206;2022-07-22T04:24:54;15.55;;;13.82;;
63038;SDS011;49125;48.812;9.206;2022-07-22T04:27:20;13.85;;;12.52;;
63038;SDS011;49125;48.812;9.206;2022-07-22T04:29:46;15.02;;;13.60;;
63038;SDS011;49125;48.812;9.206;2022-07-22T04:32:11;15.63;;;14.00;;
63038;SDS011;49125;48.812;9.206;2022-07-22T04:34:37;14.60;;;13.32;;
63038;SDS011;49125;48.812;9.206;2022-07-22T04:37:02;16.88;;;13.15;;
63038;SDS011;49125;48.812;9.206;2022-07-22T04:39:28;13.57;;;12.38;;
63038;SDS011;49125;48.812;9.206;2022-07-22T04:41:54;15.43;;;13.95;;
63038;SDS011;49125;48.812;9.206;2022-07-22T04:44:20;14.48;;;13.07;;
63038;SDS011;49125;48.812;9.206;2022-07-22T04:46:46;14.13;;;12.82;;
63038;SDS011;49125;48.812;9.206;2022-07-22T04:49:11;14.45;;;13.05;;
63038;SDS011;49125;48.812;9.206;2022-07-22T04:51:37;13.80;;;12.50;;
63038;SDS011;49125;48.812;9.206;2022-07-22T04:54:02;14.88;;;13.52;;
63038;SDS011;49125;48.812;9.206;2022-07-22T04:56:28;14.43;;;13.23;;
63038;SDS011;49125;48.812;9.206;2022-07-22T04:58:53;15.35;;;13.85;;
63038;SDS011;49125;48.812;9.206;2022-07-22T05:01:19;14.98;;;13.48;;
63038;SDS011;49125;48.812;9.206;2022-07-22T05:03:44;15.18;;;12.73;;
63038;SDS011;49125;48.812;9.206;2022-07-22T05:06:10;13.98;;;12.68;;
63038;SDS011;49125;48.812;9.206;2022-07-22T05:08:35;13.85;;;12.52;;
63038;SDS011;49125;48.812;9.206;2022-07-22T05:11:01;13.93;;;12.65;;
63038;SDS011;49125;48.812;9.206;2022-07-22T05:13:27;13.15;;;11.85;;
63038;SDS011;49125;48.812;9.206;2022-07-22T05:15:52;14.20;;;12.75;;
63038;SDS011;49125;48.812;9.206;2022-07-22T05:18:18;14.80;;;13.30;;
63038;SDS011;49125;48.812;9.206;2022-07-22T05:20:44;15.18;;;12.38;;
63038;SDS011;49125;48.812;9.206;2022-07-22T05:23:09;13.63;;;12.10;;
63038;SDS011;49125;48.812;9.206;2022-07-22T05:25:35;13.73;;;12.52;;
63038;SDS011;49125;48.812;9.206;2022-07-22T05:28:01;13.50;;;12.25;;
63038;SDS011;49125;48.812;9.206;2022-07-22T05:30:27;13.73;;;12.35;;
63038;SDS011;49125;48.812;9.206;2022-07-22T05:32:53;14.23;;;13.02;;
63038;SDS011;49125;48.812;9.206;2022-07-22T05:35:18;14.27;;;12.88;;
63038;SDS011;49125;48.812;9.206;2022-07-22T05:37:44;13.30;;;12.13;;
63038;SDS011;49125;48.812;9.206;2022-07-22T05:40:11;13.25;;;12.05;;
63038;SDS011;49125;48.812;9.206;2022-07-22T05:42:37;13.25;;;11.98;;
63038;SDS011;49125;48.812;9.206;2022-07-22T05:45:02;14.55;;;13.18;;
63038;SDS011;49125;48.812;9.206;2022-07-22T05:47:29;13.75;;;12.43;;
63038;SDS011;49125;48.812;9.206;2022-07-22T05:49:54;14.57;;;13.23;;
63038;SDS011;49125;48.812;9.206;2022-07-22T05:52:20;14.60;;;13.05;;
63038;SDS011;49125;48.812;9.206;2022-07-22T05:54:45;15.43;;;14.02;;
63038;SDS011;49125;48.812;9.206;2022-07-22T05:57:11;14.25;;;12.90;;
63038;SDS011;49125;48.812;9.206;2022-07-22T05:59:36;14.90;;;13.38;;
63038;SDS011;49125;48.812;9.206;2022-07-22T06:02:03;13.85;;;12.55;;
63038;SDS011;49125;48.812;9.206;2022-07-22T06:04:29;14.50;;;13.05;;
63038;SDS011;49125;48.812;9.206;2022-07-22T06:06:54;14.05;;;12.85;;
63038;SDS011;49125;48.812;9.206;2022-07-22T06:09:20;14.27;;;12.88;;
63038;SDS011;49125;48.812;9.206;2022-07-22T06:11:45;13.43;;;12.20;;
63038;SDS011;49125;48.812;9.206;2022-07-22T06:14:11;12.77;;;11.57;;
63038;SDS011;49125;48.812;9.206;2022-07-22T06:16:37;13.45;;;12.10;;
63038;SDS011;49125;48.812;9.206;2022-07-22T06:19:02;13.68;;;11.95;;
63038;SDS011;49125;48.812;9.206;2022-07-22T06:21:28;12.80;;;11.70;;
63038;SDS011;49125;48.812;9.206;2022-07-22T06:23:54;13.68;;;12.48;;
63038;SDS011;49125;48.812;9.206;2022-07-22T06:26:20;12.23;;;11.10;;
63038;SDS011;49125;48.812;9.206;2022-07-22T06:28:46;11.77;;;10.77;;
63038;SDS011;49125;48.812;9.206;2022-07-22T06:31:11;12.65;;;11.35;;
63038;SDS011;49125;48.812;9.206;2022-07-22T06:33:37;11.52;;;10.35;;
63038;SDS011;49125;48.812;9.206;2022-07-22T06:36:03;12.27;;;11.07;;
63038;SDS011;49125;48.812;9.206;2022-07-22T06:38:29;11.75;;;10.65;;
63038;SDS011;49125;48.812;9.206;2022-07-22T06:40:55;12.20;;;11.05;;
63038;SDS011;49125;48.812;9.206;2022-07-22T06:43:21;11.85;;;10.65;;
63038;SDS011;49125;48.812;9.206;2022-07-22T06:45:47;12.23;;;10.93;;
63038;SDS011;49125;48.812;9.206;2022-07-22T06:48:12;11.68;;;10.27;;
63038;SDS011;49125;48.812;9.206;2022-07-22T06:50:38;10.60;;;9.70;;
63038;SDS011;49125;48.812;9.206;2022-07-22T06:53:04;12.40;;;11.20;;
63038;SDS011;49125;48.812;9.206;2022-07-22T06:55:29;11.88;;;10.73;;
63038;SDS011;49125;48.812;9.206;2022-07-22T06:57:55;11.65;;;10.63;;
63038;SDS011;49125;48.812;9.206;2022-07-22T07:00:21;10.90;;;9.90;;
63038;SDS011;49125;48.812;9.206;2022-07-22T07:02:46;11.25;;;10.23;;
63038;SDS011;49125;48.812;9.206;2022-07-22T07:05:12;12.20;;;10.90;;
63038;SDS011;49125;48.812;9.206;2022-07-22T07:07:38;15.35;;;11.88;;
63038;SDS011;49125;48.812;9.206;2022-07-22T07:10:03;13.63;;;10.85;;
63038;SDS011;49125;48.812;9.206;2022-07-22T07:12:29;12.15;;;11.05;;
63038;SDS011;49125;48.812;9.206;2022-07-22T07:14:55;12.73;;;11.68;;
63038;SDS011;49125;48.812;9.206;2022-07-22T07:17:20;14.77;;;10.88;;
63038;SDS011;49125;48.812;9.206;2022-07-22T07:19:46;11.50;;;10.50;;
63038;SDS011;49125;48.812;9.206;2022-07-22T07:22:11;12.60;;;11.60;;
63038;SDS011;49125;48.812;9.206;2022-07-22T07:24:37;12.82;;;11.73;;
63038;SDS011;49125;48.812;9.206;2022-07-22T07:27:02;12.05;;;11.05;;
63038;SDS011;49125;48.812;9.206;2022-07-22T07:29:28;12.63;;;11.52;;
63038;SDS011;49125;48.812;9.206;2022-07-22T07:31:53;12.93;;;11.32;;
63038;SDS011;49125;48.812;9.206;2022-07-22T07:34:19;12.15;;;11.05;;
63038;SDS011;49125;48.812;9.206;2022-07-22T07:36:44;13.25;;;12.15;;
63038;SDS011;49125;48.812;9.206;2022-07-22T07:39:10;14.82;;;11.02;;
63038;SDS011;49125;48.812;9.206;2022-07-22T07:41:36;11.60;;;10.45;;
63038;SDS011;49125;48.812;9.206;2022-07-22T07:44:01;11.63;;;10.52;;
63038;SDS011;49125;48.812;9.206;2022-07-22T07:46:27;11.32;;;10.32;;
63038;SDS011;49125;48.812;9.206;2022-07-22T07:48:52;12.35;;;11.15;;
63038;SDS011;49125;48.812;9.206;2022-07-22T07:51:18;11.68;;;10.07;;
63038;SDS011;49125;48.812;9.206;2022-07-22T07:53:44;12.82;;;10.55;;
63038;SDS011;49125;48.812;9.206;2022-07-22T07:56:10;11.68;;;10.55;;
63038;SDS011;49125;48.812;9.206;2022-07-22T07:58:36;11.35;;;10.15;;
63038;SDS011;49125;48.812;9.206;2022-07-22T08:01:02;10.88;;;9.77;;
63038;SDS011;49125;48.812;9.206;2022-07-22T08:03:30;11.07;;;10.05;;
63038;SDS011;49125;48.812;9.206;2022-07-22T08:05:56;10.43;;;9.52;;
63038;SDS011;49125;48.812;9.206;2022-07-22T08:08:24;11.80;;;10.40;;
63038;SDS011;49125;48.812;9.206;2022-07-22T08:10:50;11.13;;;10.05;;
63038;SDS011;49125;48.812;9.206;2022-07-22T08:13:16;10.57;;;9.57;;
63038;SDS011;49125;48.812;9.206;2022-07-22T08:15:41;11.27;;;9.65;;
63038;SDS011;49125;48.812;9.206;2022-07-22T08:18:07;9.82;;;8.93;;
63038;SDS011;49125;48.812;9.206;2022-07-22T08:20:32;10.88;;;9.77;;
63038;SDS011;49125;48.812;9.206;2022-07-22T08:22:58;10.52;;;9.45;;
63038;SDS011;49125;48.812;9.206;2022-07-22T08:25:24;10.55;;;9.65;;
63038;SDS011;49125;48.812;9.206;2022-07-22T08:27:50;10.95;;;9.38;;
63038;SDS011;49125;48.812;9.206;2022-07-22T08:30:17;10.40;;;8.98;;
63038;SDS011;49125;48.812;9.206;2022-07-22T08:32:43;10.20;;;9.05;;
63038;SDS011;49125;48.812;9.206;2022-07-22T08:35:09;10.18;;;9.27;;
63038;SDS011;49125;48.812;9.206;2022-07-22T08:37:35;10.52;;;9.65;;
63038;SDS011;49125;48.812;9.206;2022-07-22T08:40:00;10.60;;;9.43;;
63038;SDS011;49125;48.812;9.206;2022-07-22T08:42:26;9.30;;;8.50;;
63038;SDS011;49125;48.812;9.206;2022-07-22T08:44:52;10.13;;;9.13;;
63038;SDS011;49125;48.812;9.206;2022-07-22T08:47:23;9.32;;;8.45;;
63038;SDS011;49125;48.812;9.206;2022-07-22T08:49:49;9.07;;;8.27;;
63038;SDS011;49125;48.812;9.206;2022-07-22T08:52:15;9.63;;;8.73;;
63038;SDS011;49125;48.812;9.206;2022-07-22T08:54:40;10.05;;;9.20;;
63038;SDS011;49125;48.812;9.206;2022-07-22T08:57:06;9.50;;;8.65;;
63038;SDS011;49125;48.812;9.206;2022-07-22T08:59:32;10.13;;;9.10;;
63038;SDS011;49125;48.812;9.206;2022-07-22T09:02:07;10.95;;;8.80;;
63038;SDS011;49125;48.812;9.206;2022-07-22T09:07:32;11.27;;;8.15;;
63038;SDS011;49125;48.812;9.206;2022-07-22T09:10:03;9.32;;;8.52;;
63038;SDS011;49125;48.812;9.206;2022-07-22T09:13:18;10.10;;;9.10;;
63038;SDS011;49125;48.812;9.206;2022-07-22T09:15:27;9.68;;;8.80;;
63038;SDS011;49125;48.812;9.206;2022-07-22T09:17:54;10.20;;;9.18;;
63038;SDS011;49125;48.812;9.206;2022-07-22T09:20:20;9.50;;;8.80;;
63038;SDS011;49125;48.812;9.206;2022-07-22T09:22:47;9.77;;;8.98;;
63038;SDS011;49125;48.812;9.206;2022-07-22T09:25:30;8.82;;;7.90;;
63038;SDS011;49125;48.812;9.206;2022-07-22T09:28:18;11.02;;;9.05;;
63038;SDS011;49125;48.812;9.206;2022-07-22T09:30:50;11.88;;;9.07;;
63038;SDS011;49125;48.812;9.206;2022-07-22T09:33:20;9.35;;;8.50;;
63038;SDS011;49125;48.812;9.206;2022-07-22T09:35:47;9.48;;;8.68;;
63038;SDS011;49125;48.812;9.206;2022-07-22T09:38:14;9.13;;;8.23;;
63038;SDS011;49125;48.812;9.206;2022-07-22T09:40:42;8.00;;;7.40;;
63038;SDS011;49125;48.812;9.206;2022-07-22T09:43:10;8.70;;;7.90;;
63038;SDS011;49125;48.812;9.206;2022-07-22T09:45:44;8.45;;;7.72;;
63038;SDS011;49125;48.812;9.206;2022-07-22T09:48:12;8.10;;;7.50;;
63038;SDS011;49125;48.812;9.206;2022-07-22T09:50:38;7.55;;;6.82;;
63038;SDS011;49125;48.812;9.206;2022-07-22T09:53:03;8.50;;;7.63;;
63038;SDS011;49125;48.812;9.206;2022-07-22T09:55:29;8.30;;;7.60;;
63038;SDS011;49125;48.812;9.206;2022-07-22T09:57:56;8.27;;;7.50;;
63038;SDS011;49125;48.812;9.206;2022-07-22T10:00:23;8.15;;;7.38;;
63038;SDS011;49125;48.812;9.206;2022-07-22T10:05:17;8.57;;;7.63;;
63038;SDS011;49125;48.812;9.206;2022-07-22T10:07:45;7.93;;;7.20;;
63038;SDS011;49125;48.812;9.206;2022-07-22T10:10:13;10.60;;;7.88;;
63038;SDS011;49125;48.812;9.206;2022-07-22T10:12:41;8.25;;;7.45;;
63038;SDS011;49125;48.812;9.206;2022-07-22T10:15:07;8.65;;;7.95;;
63038;SDS011;49125;48.812;9.206;2022-07-22T10:17:38;7.90;;;7.22;;
63038;SDS011;49125;48.812;9.206;2022-07-22T10:20:09;8.05;;;7.35;;
63038;SDS011;49125;48.812;9.206;2022-07-22T10:25:05;7.78;;;7.07;;
63038;SDS011;49125;48.812;9.206;2022-07-22T10:30:30;9.52;;;8.70;;
63038;SDS011;49125;48.812;9.206;2022-07-22T10:38:12;10.02;;;7.90;;
63038;SDS011;49125;48.812;9.206;2022-07-22T10:43:15;7.78;;;7.03;;
63038;SDS011;49125;48.812;9.206;2022-07-22T10:45:52;8.35;;;7.40;;
63038;SDS011;49125;48.812;9.206;2022-07-22T10:48:23;8.30;;;7.55;;
63038;SDS011;49125;48.812;9.206;2022-07-22T10:51:04;7.85;;;7.10;;
63038;SDS011;49125;48.812;9.206;2022-07-22T11:01:41;7.93;;;7.22;;
63038;SDS011;49125;48.812;9.206;2022-07-22T11:04:13;9.27;;;7.13;;
63038;SDS011;49125;48.812;9.206;2022-07-22T11:06:40;8.13;;;7.28;;
63038;SDS011;49125;48.812;9.206;2022-07-22T11:09:07;8.27;;;7.47;;
63038;SDS011;49125;48.812;9.206;2022-07-22T11:11:39;7.95;;;7.35;;
63038;SDS011;49125;48.812;9.206;2022-07-22T11:14:27;8.15;;;7.55;;
63038;SDS011;49125;48.812;9.206;2022-07-22T11:17:08;8.27;;;7.47;;
63038;SDS011;49125;48.812;9.206;2022-07-22T11:19:35;7.57;;;6.95;;
63038;SDS011;49125;48.812;9.206;2022-07-22T11:22:12;8.35;;;7.45;;
63038;SDS011;49125;48.812;9.206;2022-07-22T11:24:41;9.02;;;8.07;;
63038;SDS011;49125;48.812;9.206;2022-07-22T11:27:17;7.97;;;7.30;;
63038;SDS011;49125;48.812;9.206;2022-07-22T11:29:47;7.45;;;6.95;;
63038;SDS011;49125;48.812;9.206;2022-07-22T11:32:14;7.95;;;7.15;;
63038;SDS011;49125;48.812;9.206;2022-07-22T11:34:43;7.30;;;6.70;;
63038;SDS011;49125;48.812;9.206;2022-07-22T11:37:13;8.32;;;7.53;;
63038;SDS011;49125;48.812;9.206;2022-07-22T11:39:44;8.25;;;7.53;;
63038;SDS011;49125;48.812;9.206;2022-07-22T11:42:09;7.35;;;6.85;;
63038;SDS011;49125;48.812;9.206;2022-07-22T11:44:36;8.10;;;7.30;;
63038;SDS011;49125;48.812;9.206;2022-07-22T11:47:06;7.72;;;7.13;;
63038;SDS011;49125;48.812;9.206;2022-07-22T11:49:33;10.20;;;7.70;;
63038;SDS011;49125;48.812;9.206;2022-07-22T11:52:02;7.43;;;6.82;;
63038;SDS011;49125;48.812;9.206;2022-07-22T11:54:28;7.38;;;6.78;;
63038;SDS011;49125;48.812;9.206;2022-07-22T11:56:54;8.05;;;7.35;;
63038;SDS011;49125;48.812;9.206;2022-07-22T11:59:19;7.50;;;6.90;;
63038;SDS011;49125;48.812;9.206;2022-07-22T12:01:46;7.70;;;7.10;;
63038;SDS011;49125;48.812;9.206;2022-07-22T12:04:14;8.10;;;7.47;;
63038;SDS011;49125;48.812;9.206;2022-07-22T12:06:42;9.07;;;7.40;;
63038;SDS011;49125;48.812;9.206;2022-07-22T12:09:10;7.68;;;7.07;;
63038;SDS011;49125;48.812;9.206;2022-07-22T12:11:46;7.93;;;7.13;;
63038;SDS011;49125;48.812;9.206;2022-07-22T12:14:18;7.72;;;7.13;;
63038;SDS011;49125;48.812;9.206;2022-07-22T12:16:58;7.43;;;6.82;;
63038;SDS011;49125;48.812;9.206;2022-07-22T12:19:35;8.00;;;7.30;;
63038;SDS011;49125;48.812;9.206;2022-07-22T12:24:35;7.55;;;6.85;;
63038;SDS011;49125;48.812;9.206;2022-07-22T12:27:05;8.90;;;6.97;;
63038;SDS011;49125;48.812;9.206;2022-07-22T12:32:02;6.85;;;6.32;;
63038;SDS011;49125;48.812;9.206;2022-07-22T12:34:31;7.03;;;6.47;;
63038;SDS011;49125;48.812;9.206;2022-07-22T12:36:58;7.78;;;7.07;;
63038;SDS011;49125;48.812;9.206;2022-07-22T12:39:27;7.40;;;6.85;;
63038;SDS011;49125;48.812;9.206;2022-07-22T12:41:53;7.60;;;6.95;;
63038;SDS011;49125;48.812;9.206;2022-07-22T12:44:21;8.02;;;7.32;;
63038;SDS011;49125;48.812;9.206;2022-07-22T12:46:52;8.00;;;7.05;;
63038;SDS011;49125;48.812;9.206;2022-07-22T12:49:22;7.03;;;6.53;;
63038;SDS011;49125;48.812;9.206;2022-07-22T12:52:05;7.93;;;6.43;;
63038;SDS011;49125;48.812;9.206;2022-07-22T12:54:38;7.60;;;7.00;;
63038;SDS011;49125;48.812;9.206;2022-07-22T12:57:06;7.38;;;6.82;;
63038;SDS011;49125;48.812;9.206;2022-07-22T12:59:33;6.55;;;6.05;;
63038;SDS011;49125;48.812;9.206;2022-07-22T13:01:59;7.50;;;7.00;;
63038;SDS011;49125;48.812;9.206;2022-07-22T13:04:25;7.10;;;6.50;;
63038;SDS011;49125;48.812;9.206;2022-07-22T13:06:51;7.25;;;6.65;;
63038;SDS011;49125;48.812;9.206;2022-07-22T13:09:19;6.93;;;6.38;;
63038;SDS011;49125;48.812;9.206;2022-07-22T13:11:45;7.13;;;6.43;;
63038;SDS011;49125;48.812;9.206;2022-07-22T13:14:11;6.90;;;6.40;;
63038;SDS011;49125;48.812;9.206;2022-07-22T13:16:38;7.03;;;6.45;;
63038;SDS011;49125;48.812;9.206;2022-07-22T13:19:03;6.28;;;5.60;;
63038;SDS011;49125;48.812;9.206;2022-07-22T13:21:29;7.05;;;6.35;;
63038;SDS011;49125;48.812;9.206;2022-07-22T13:23:55;6.90;;;6.30;;
63038;SDS011;49125;48.812;9.206;2022-07-22T13:26:20;6.65;;;6.10;;
63038;SDS011;49125;48.812;9.206;2022-07-22T13:28:46;6.10;;;5.70;;
63038;SDS011;49125;48.812;9.206;2022-07-22T13:31:12;6.43;;;5.97;;
63038;SDS011;49125;48.812;9.206;2022-07-22T13:33:37;6.47;;;5.85;;
63038;SDS011;49125;48.812;9.206;2022-07-22T13:36:03;7.13;;;6.40;;
63038;SDS011;49125;48.812;9.206;2022-07-22T13:38:29;6.10;;;5.60;;
63038;SDS011;49125;48.812;9.206;2022-07-22T13:40:55;6.28;;;5.80;;
63038;SDS011;49125;48.812;9.206;2022-07-22T13:43:21;6.05;;;5.65;;
63038;SDS011;49125;48.812;9.206;2022-07-22T13:45:49;6.97;;;6.47;;
63038;SDS011;49125;48.812;9.206;2022-07-22T13:48:15;7.20;;;6.60;;
63038;SDS011;49125;48.812;9.206;2022-07-22T13:50:42;6.88;;;6.47;;
63038;SDS011;49125;48.812;9.206;2022-07-22T13:53:07;7.38;;;6.78;;
63038;SDS011;49125;48.812;9.206;2022-07-22T13:55:33;7.22;;;6.72;;
63038;SDS011;49125;48.812;9.206;2022-07-22T13:57:59;6.80;;;6.28;;
63038;SDS011;49125;48.812;9.206;2022-07-22T14:00:27;7.63;;;6.60;;
63038;SDS011;49125;48.812;9.206;2022-07-22T14:02:53;6.65;;;6.05;;
63038;SDS011;49125;48.812;9.206;2022-07-22T14:05:18;7.10;;;6.40;;
63038;SDS011;49125;48.812;9.206;2022-07-22T14:07:44;6.90;;;6.35;;
63038;SDS011;49125;48.812;9.206;2022-07-22T14:10:10;8.40;;;6.75;;
63038;SDS011;49125;48.812;9.206;2022-07-22T14:12:36;8.15;;;6.78;;
63038;SDS011;49125;48.812;9.206;2022-07-22T14:15:01;7.13;;;6.50;;
63038;SDS011;49125;48.812;9.206;2022-07-22T14:17:31;6.97;;;6.38;;
63038;SDS011;49125;48.812;9.206;2022-07-22T14:19:56;7.10;;;6.47;;
63038;SDS011;49125;48.812;9.206;2022-07-22T14:22:22;7.20;;;6.55;;
63038;SDS011;49125;48.812;9.206;2022-07-22T14:24:47;7.25;;;6.65;;
63038;SDS011;49125;48.812;9.206;2022-07-22T14:27:13;7.68;;;6.30;;
63038;SDS011;49125;48.812;9.206;2022-07-22T14:29:38;6.72;;;6.15;;
63038;SDS011;49125;48.812;9.206;2022-07-22T14:32:04;6.95;;;6.45;;
63038;SDS011;49125;48.812;9.206;2022-07-22T14:34:30;6.72;;;6.05;;
63038;SDS011;49125;48.812;9.206;2022-07-22T14:36:56;6.47;;;6.03;;
63038;SDS011;49125;48.812;9.206;2022-07-22T14:39:21;8.52;;;6.28;;
63038;SDS011;49125;48.812;9.206;2022-07-22T14:41:47;6.97;;;6.22;;
63038;SDS011;49125;48.812;9.206;2022-07-22T14:44:13;7.15;;;6.55;;
63038;SDS011;49125;48.812;9.206;2022-07-22T14:46:38;8.20;;;6.45;;
63038;SDS011;49125;48.812;9.206;2022-07-22T14:49:04;6.60;;;6.18;;
63038;SDS011;49125;48.812;9.206;2022-07-22T14:51:29;7.35;;;6.00;;
63038;SDS011;49125;48.812;9.206;2022-07-22T14:53:55;6.93;;;6.35;;
63038;SDS011;49125;48.812;9.206;2022-07-22T14:56:21;5.97;;;5.57;;
63038;SDS011;49125;48.812;9.206;2022-07-22T14:58:46;5.97;;;5.50;;
63038;SDS011;49125;48.812;9.206;2022-07-22T15:01:12;6.35;;;5.80;;
63038;SDS011;49125;48.812;9.206;2022-07-22T15:03:38;6.07;;;5.57;;
63038;SDS011;49125;48.812;9.206;2022-07-22T15:06:03;6.03;;;5.43;;